PWSweather.com
Personal Weather Stations
Station Observations
IPODRAVI2
Croatia, Trnovec BartoloveckiHR

CroatiaTrnovec BartoloveckiHR

Lat: 46.2947, Lon: 16.3989

Elevation: 535

Station Type: Davis Vantage Pro2 plus

http://www.pljusak.com/trnovec1/wx.html

High Low Average
Temperature 37.5°F3.1°F 32.0°F0.0°F 35.6°F2.0°F
Dew Point 34.3°F1.3°F 15.4°F-9.2°F 32.5°F0.3°F
Winds 6.6 mph ENE10.6 mph ENE Calm Calm 3.0 mph 4.8 mph
Wind Gusts 11.0 mph17.7 mph -- 5.1 mph8.2 mph
Humidity 93% 50% 88%
Pressure 30.18 in1022.00 in 30.05 in1017.60 in -
Precipitation 0.00 in0.00 in - -
Hour Temp Dew Point Humidity Winds Wind Gusts Pressure Precip Precip Rate Daily Precip Total
12:00 AM 36.5°F2.5°C 34.1°F1.2°C 91% 1.2 mph E1.9 kmh E 3.0 mph4.8 kmh 30.18 in1022.0 mb 0.00 in0.0 mm 0.00 in/hr0.0 mm/hr 0.00 in0.0 mm
12:10 AM 36.4°F2.4°C 34.3°F1.3°C 92% 2.0 mph E3.2 kmh E 3.0 mph4.8 kmh 30.18 in1022.0 mb 0.00 in0.0 mm 0.00 in/hr0.0 mm/hr 0.00 in0.0 mm
12:21 AM 36.3°F2.4°C 34.2°F1.2°C 92% 0.7 mph E1.1 kmh E 2.0 mph3.2 kmh 30.18 in1022.0 mb 0.00 in0.0 mm 0.00 in/hr0.0 mm/hr 0.00 in0.0 mm
12:31 AM 36.3°F2.4°C 34.2°F1.2°C 92% 0.8 mph E1.3 kmh E 2.0 mph3.2 kmh 30.17 in1021.7 mb 0.00 in0.0 mm 0.00 in/hr0.0 mm/hr 0.00 in0.0 mm
12:40 AM 36.2°F2.3°C 34.1°F1.2°C 92% 1.5 mph E2.4 kmh E 3.0 mph4.8 kmh 30.17 in1021.7 mb 0.00 in0.0 mm 0.00 in/hr0.0 mm/hr 0.00 in0.0 mm
12:50 AM 36.1°F2.3°C 34.0°F1.1°C 92% 0.8 mph E1.3 kmh E 1.0 mph1.6 kmh 30.17 in1021.7 mb 0.00 in0.0 mm 0.00 in/hr0.0 mm/hr 0.00 in0.0 mm
01:00 AM 36.0°F2.2°C 34.2°F1.2°C 93% 1.6 mph E2.6 kmh E 3.0 mph4.8 kmh 30.17 in1021.7 mb 0.00 in0.0 mm 0.00 in/hr0.0 mm/hr 0.00 in0.0 mm
01:10 AM 36.0°F2.2°C 34.2°F1.2°C 93% 0.3 mph E0.5 kmh E -- 30.16 in1021.3 mb 0.00 in0.0 mm 0.00 in/hr0.0 mm/hr 0.00 in0.0 mm
01:20 AM 35.9°F2.2°C 34.1°F1.2°C 93% 1.7 mph E2.7 kmh E 3.0 mph4.8 kmh 30.16 in1021.3 mb 0.00 in0.0 mm 0.00 in/hr0.0 mm/hr 0.00 in0.0 mm
01:30 AM 35.8°F2.1°C 34.0°F1.1°C 93% 2.7 mph E4.3 kmh E 4.0 mph6.4 kmh 30.16 in1021.3 mb 0.00 in0.0 mm 0.00 in/hr0.0 mm/hr 0.00 in0.0 mm
01:40 AM 35.8°F2.1°C 34.0°F1.1°C 93% 0.8 mph E1.3 kmh E 2.0 mph3.2 kmh 30.16 in1021.3 mb 0.00 in0.0 mm 0.00 in/hr0.0 mm/hr 0.00 in0.0 mm
01:50 AM 35.7°F2.1°C 33.9°F1.1°C 93% 1.8 mph E2.9 kmh E 3.0 mph4.8 kmh 30.16 in1021.3 mb 0.00 in0.0 mm 0.00 in/hr0.0 mm/hr 0.00 in0.0 mm
02:00 AM 35.6°F2.0°C 33.8°F1.0°C 93% 2.6 mph E4.2 kmh E 3.0 mph4.8 kmh 30.16 in1021.3 mb 0.00 in0.0 mm 0.00 in/hr0.0 mm/hr 0.00 in0.0 mm
02:10 AM 35.6°F2.0°C 33.8°F1.0°C 93% 1.8 mph E2.9 kmh E 3.0 mph4.8 kmh 30.16 in1021.3 mb 0.00 in0.0 mm 0.00 in/hr0.0 mm/hr 0.00 in0.0 mm
02:20 AM 35.5°F1.9°C 33.7°F0.9°C 93% 3.4 mph E5.5 kmh E 6.0 mph9.7 kmh 30.16 in1021.3 mb 0.00 in0.0 mm 0.00 in/hr0.0 mm/hr 0.00 in0.0 mm
02:30 AM 35.4°F1.9°C 33.6°F0.9°C 93% 1.6 mph E2.6 kmh E 4.0 mph6.4 kmh 30.16 in1021.3 mb 0.00 in0.0 mm 0.00 in/hr0.0 mm/hr 0.00 in0.0 mm
02:40 AM 35.4°F1.9°C 33.6°F0.9°C 93% 0.9 mph E1.4 kmh E 2.0 mph3.2 kmh 30.15 in1021.0 mb 0.00 in0.0 mm 0.00 in/hr0.0 mm/hr 0.00 in0.0 mm
02:50 AM 35.4°F1.9°C 33.6°F0.9°C 93% 1.6 mph E2.6 kmh E 4.0 mph6.4 kmh 30.15 in1021.0 mb 0.00 in0.0 mm 0.00 in/hr0.0 mm/hr 0.00 in0.0 mm
03:00 AM 35.4°F1.9°C 33.3°F0.7°C 92% 1.8 mph E2.9 kmh E 3.0 mph4.8 kmh 30.15 in1021.0 mb 0.00 in0.0 mm 0.00 in/hr0.0 mm/hr 0.00 in0.0 mm
03:10 AM 35.4°F1.9°C 33.3°F0.7°C 92% 2.5 mph E4.0 kmh E 3.0 mph4.8 kmh 30.14 in1020.7 mb 0.00 in0.0 mm 0.00 in/hr0.0 mm/hr 0.00 in0.0 mm
03:20 AM 35.4°F1.9°C 33.3°F0.7°C 92% 0.8 mph E1.3 kmh E 3.0 mph4.8 kmh 30.14 in1020.7 mb 0.00 in0.0 mm 0.00 in/hr0.0 mm/hr 0.00 in0.0 mm
03:30 AM 35.4°F1.9°C 33.3°F0.7°C 92% 0.6 mph E1.0 kmh E 3.0 mph4.8 kmh 30.14 in1020.7 mb 0.00 in0.0 mm 0.00 in/hr0.0 mm/hr 0.00 in0.0 mm
03:40 AM 35.4°F1.9°C 33.3°F0.7°C 92% 3.1 mph E5.0 kmh E 5.0 mph8.0 kmh 30.14 in1020.7 mb 0.00 in0.0 mm 0.00 in/hr0.0 mm/hr 0.00 in0.0 mm
03:50 AM 35.4°F1.9°C 33.3°F0.7°C 92% 2.0 mph E3.2 kmh E 3.0 mph4.8 kmh 30.14 in1020.7 mb 0.00 in0.0 mm 0.00 in/hr0.0 mm/hr 0.00 in0.0 mm
04:00 AM 35.3°F1.8°C 33.3°F0.7°C 92% 2.1 mph E3.4 kmh E 3.0 mph4.8 kmh 30.14 in1020.7 mb 0.00 in0.0 mm 0.00 in/hr0.0 mm/hr 0.00 in0.0 mm
04:10 AM 35.3°F1.8°C 33.2°F0.7°C 92% 2.4 mph E3.9 kmh E 5.0 mph8.0 kmh 30.14 in1020.7 mb 0.00 in0.0 mm 0.00 in/hr0.0 mm/hr 0.00 in0.0 mm
04:20 AM 35.3°F1.8°C 33.2°F0.7°C 92% 3.3 mph E5.3 kmh E 5.0 mph8.0 kmh 30.13 in1020.3 mb 0.00 in0.0 mm 0.00 in/hr0.0 mm/hr 0.00 in0.0 mm
04:30 AM 35.3°F1.8°C 33.2°F0.7°C 92% 2.3 mph E3.7 kmh E 4.0 mph6.4 kmh 30.13 in1020.3 mb 0.00 in0.0 mm 0.00 in/hr0.0 mm/hr 0.00 in0.0 mm
04:40 AM 35.3°F1.8°C 33.2°F0.7°C 92% 1.2 mph E1.9 kmh E 4.0 mph6.4 kmh 30.13 in1020.3 mb 0.00 in0.0 mm 0.00 in/hr0.0 mm/hr 0.00 in0.0 mm
04:50 AM 35.2°F1.8°C 32.8°F0.4°C 91% 1.9 mph E3.1 kmh E 4.0 mph6.4 kmh 30.13 in1020.3 mb 0.00 in0.0 mm 0.00 in/hr0.0 mm/hr 0.00 in0.0 mm
05:00 AM 35.2°F1.8°C 32.8°F0.4°C 91% 1.9 mph E3.1 kmh E 5.0 mph8.0 kmh 30.13 in1020.3 mb 0.00 in0.0 mm 0.00 in/hr0.0 mm/hr 0.00 in0.0 mm
05:10 AM 35.1°F1.7°C 32.8°F0.4°C 91% 3.8 mph E6.1 kmh E 7.0 mph11.3 kmh 30.13 in1020.3 mb 0.00 in0.0 mm 0.00 in/hr0.0 mm/hr 0.00 in0.0 mm
05:20 AM 35.1°F1.7°C 32.7°F0.4°C 91% 5.4 mph E8.7 kmh E 7.0 mph11.3 kmh 30.12 in1020.0 mb 0.00 in0.0 mm 0.00 in/hr0.0 mm/hr 0.00 in0.0 mm
05:30 AM 34.9°F1.6°C 32.5°F0.3°C 91% 4.6 mph E7.4 kmh E 6.0 mph9.7 kmh 30.12 in1020.0 mb 0.00 in0.0 mm 0.00 in/hr0.0 mm/hr 0.00 in0.0 mm
05:40 AM 34.8°F1.6°C 32.5°F0.3°C 91% 5.4 mph ENE8.7 kmh ENE 8.0 mph12.9 kmh 30.12 in1020.0 mb 0.00 in0.0 mm 0.00 in/hr0.0 mm/hr 0.00 in0.0 mm
05:50 AM 34.7°F1.5°C 32.1°F0.1°C 90% 6.0 mph E9.7 kmh E 8.0 mph12.9 kmh 30.11 in1019.6 mb 0.00 in0.0 mm 0.00 in/hr0.0 mm/hr 0.00 in0.0 mm
06:00 AM 34.6°F1.4°C 32.0°F0.0°C 90% 6.0 mph E9.7 kmh E 8.0 mph12.9 kmh 30.11 in1019.6 mb 0.00 in0.0 mm 0.00 in/hr0.0 mm/hr 0.00 in0.0 mm
06:10 AM 34.5°F1.4°C 31.9°F-0.1°C 90% 5.7 mph E9.2 kmh E 7.0 mph11.3 kmh 30.12 in1020.0 mb 0.00 in0.0 mm 0.00 in/hr0.0 mm/hr 0.00 in0.0 mm
06:20 AM 34.4°F1.3°C 31.8°F-0.1°C 90% 4.1 mph E6.6 kmh E 8.0 mph12.9 kmh 30.12 in1020.0 mb 0.00 in0.0 mm 0.00 in/hr0.0 mm/hr 0.00 in0.0 mm
06:30 AM 34.4°F1.3°C 31.8°F-0.1°C 90% 3.1 mph E5.0 kmh E 7.0 mph11.3 kmh 30.12 in1020.0 mb 0.00 in0.0 mm 0.00 in/hr0.0 mm/hr 0.00 in0.0 mm
06:40 AM 34.3°F1.3°C 31.7°F-0.2°C 90% 3.9 mph E6.3 kmh E 6.0 mph9.7 kmh 30.12 in1020.0 mb 0.00 in0.0 mm 0.00 in/hr0.0 mm/hr 0.00 in0.0 mm
06:50 AM 34.3°F1.3°C 31.4°F-0.3°C 89% 4.0 mph E6.4 kmh E 7.0 mph11.3 kmh 30.12 in1020.0 mb 0.00 in0.0 mm 0.00 in/hr0.0 mm/hr 0.00 in0.0 mm
07:00 AM 34.3°F1.3°C 31.7°F-0.2°C 90% 3.2 mph E5.1 kmh E 5.0 mph8.0 kmh 30.12 in1020.0 mb 0.00 in0.0 mm 0.00 in/hr0.0 mm/hr 0.00 in0.0 mm
07:10 AM 34.3°F1.3°C 31.4°F-0.3°C 89% 2.0 mph E3.2 kmh E 3.0 mph4.8 kmh 30.12 in1020.0 mb 0.00 in0.0 mm 0.00 in/hr0.0 mm/hr 0.00 in0.0 mm
07:20 AM 34.3°F1.3°C 31.4°F-0.3°C 89% 2.0 mph E3.2 kmh E 5.0 mph8.0 kmh 30.12 in1020.0 mb 0.00 in0.0 mm 0.00 in/hr0.0 mm/hr 0.00 in0.0 mm
07:40 AM 34.4°F1.3°C 31.5°F-0.3°C 89% 4.5 mph E7.2 kmh E 8.0 mph12.9 kmh 30.12 in1020.0 mb 0.00 in0.0 mm 0.00 in/hr0.0 mm/hr 0.00 in0.0 mm
07:50 AM 34.5°F1.4°C 31.6°F-0.2°C 89% 2.6 mph E4.2 kmh E 9.0 mph14.5 kmh 30.12 in1020.0 mb 0.00 in0.0 mm 0.00 in/hr0.0 mm/hr 0.00 in0.0 mm
08:20 AM 32.0°F0.0°C 15.4°F-9.2°C 50% Calm Calm -- 30.13 in1020.3 mb 0.00 in0.0 mm 0.00 in/hr0.0 mm/hr 0.00 in0.0 mm
08:30 AM 34.5°F1.4°C 31.8°F-0.1°C 90% 4.0 mph E6.4 kmh E 8.0 mph12.9 kmh 30.12 in1020.0 mb 0.00 in0.0 mm 0.00 in/hr0.0 mm/hr 0.00 in0.0 mm
08:40 AM 34.5°F1.4°C 31.6°F-0.2°C 89% 3.7 mph E6.0 kmh E 5.0 mph8.0 kmh 30.12 in1020.0 mb 0.00 in0.0 mm 0.00 in/hr0.0 mm/hr 0.00 in0.0 mm
08:50 AM 34.6°F1.4°C 31.7°F-0.2°C 89% 6.0 mph ESE9.7 kmh ESE 8.0 mph12.9 kmh 30.12 in1020.0 mb 0.00 in0.0 mm 0.00 in/hr0.0 mm/hr 0.00 in0.0 mm
09:00 AM 34.6°F1.4°C 31.7°F-0.2°C 89% 4.4 mph E7.1 kmh E 7.0 mph11.3 kmh 30.13 in1020.3 mb 0.00 in0.0 mm 0.00 in/hr0.0 mm/hr 0.00 in0.0 mm
09:10 AM 34.6°F1.4°C 31.7°F-0.2°C 89% 4.3 mph E6.9 kmh E 8.0 mph12.9 kmh 30.13 in1020.3 mb 0.00 in0.0 mm 0.00 in/hr0.0 mm/hr 0.00 in0.0 mm
09:20 AM 34.7°F1.5°C 31.5°F-0.3°C 88% 3.0 mph E4.8 kmh E 6.0 mph9.7 kmh 30.12 in1020.0 mb 0.00 in0.0 mm 0.00 in/hr0.0 mm/hr 0.00 in0.0 mm
09:30 AM 34.8°F1.6°C 31.6°F-0.2°C 88% 2.1 mph ESE3.4 kmh ESE 3.0 mph4.8 kmh 30.12 in1020.0 mb 0.00 in0.0 mm 0.00 in/hr0.0 mm/hr 0.00 in0.0 mm
09:40 AM 35.0°F1.7°C 31.8°F-0.1°C 88% 3.8 mph E6.1 kmh E 6.0 mph9.7 kmh 30.12 in1020.0 mb 0.00 in0.0 mm 0.00 in/hr0.0 mm/hr 0.00 in0.0 mm
09:50 AM 35.1°F1.7°C 31.9°F-0.1°C 88% 3.6 mph E5.8 kmh E 7.0 mph11.3 kmh 30.12 in1020.0 mb 0.00 in0.0 mm 0.00 in/hr0.0 mm/hr 0.00 in0.0 mm
10:01 AM 35.1°F1.7°C 32.0°F0.0°C 88% 3.9 mph E6.3 kmh E 7.0 mph11.3 kmh 30.12 in1020.0 mb 0.00 in0.0 mm 0.00 in/hr0.0 mm/hr 0.00 in0.0 mm
10:11 AM 35.2°F1.8°C 32.3°F0.2°C 89% 4.7 mph E7.6 kmh E 5.0 mph8.0 kmh 30.12 in1020.0 mb 0.00 in0.0 mm 0.00 in/hr0.0 mm/hr 0.00 in0.0 mm
10:21 AM 35.4°F1.9°C 32.2°F0.1°C 88% 4.1 mph E6.6 kmh E 7.0 mph11.3 kmh 30.12 in1020.0 mb 0.00 in0.0 mm 0.00 in/hr0.0 mm/hr 0.00 in0.0 mm
10:31 AM 35.5°F1.9°C 32.0°F0.0°C 87% 3.9 mph E6.3 kmh E 7.0 mph11.3 kmh 30.12 in1020.0 mb 0.00 in0.0 mm 0.00 in/hr0.0 mm/hr 0.00 in0.0 mm
10:41 AM 35.7°F2.1°C 32.2°F0.1°C 87% 2.8 mph ESE4.5 kmh ESE 6.0 mph9.7 kmh 30.12 in1020.0 mb 0.00 in0.0 mm 0.00 in/hr0.0 mm/hr 0.00 in0.0 mm
10:50 AM 35.8°F2.1°C 32.0°F0.0°C 86% 2.0 mph E3.2 kmh E 5.0 mph8.0 kmh 30.11 in1019.6 mb 0.00 in0.0 mm 0.00 in/hr0.0 mm/hr 0.00 in0.0 mm
11:00 AM 35.9°F2.2°C 32.4°F0.2°C 87% 3.2 mph E5.1 kmh E 5.0 mph8.0 kmh 30.11 in1019.6 mb 0.00 in0.0 mm 0.00 in/hr0.0 mm/hr 0.00 in0.0 mm
11:10 AM 36.1°F2.3°C 32.3°F0.2°C 86% 2.8 mph E4.5 kmh E 6.0 mph9.7 kmh 30.11 in1019.6 mb 0.00 in0.0 mm 0.00 in/hr0.0 mm/hr 0.00 in0.0 mm
11:20 AM 36.2°F2.3°C 32.5°F0.3°C 86% 3.6 mph E5.8 kmh E 6.0 mph9.7 kmh 30.11 in1019.6 mb 0.00 in0.0 mm 0.00 in/hr0.0 mm/hr 0.00 in0.0 mm
11:31 AM 36.3°F2.4°C 32.2°F0.1°C 85% 3.9 mph E6.3 kmh E 4.0 mph6.4 kmh 30.11 in1019.6 mb 0.00 in0.0 mm 0.00 in/hr0.0 mm/hr 0.00 in0.0 mm
11:40 AM 36.5°F2.5°C 32.7°F0.4°C 86% 2.0 mph E3.2 kmh E 5.0 mph8.0 kmh 30.10 in1019.3 mb 0.00 in0.0 mm 0.00 in/hr0.0 mm/hr 0.00 in0.0 mm
11:51 AM 36.7°F2.6°C 32.6°F0.3°C 85% 3.6 mph E5.8 kmh E 7.0 mph11.3 kmh 30.10 in1019.3 mb 0.00 in0.0 mm 0.00 in/hr0.0 mm/hr 0.00 in0.0 mm
12:01 PM 36.8°F2.7°C 33.0°F0.6°C 86% 2.6 mph E4.2 kmh E 5.0 mph8.0 kmh 30.10 in1019.3 mb 0.00 in0.0 mm 0.00 in/hr0.0 mm/hr 0.00 in0.0 mm
12:10 PM 37.0°F2.8°C 33.2°F0.7°C 86% 5.5 mph E8.9 kmh E 8.0 mph12.9 kmh 30.09 in1019.0 mb 0.00 in0.0 mm 0.00 in/hr0.0 mm/hr 0.00 in0.0 mm
12:20 PM 37.1°F2.8°C 33.0°F0.6°C 85% 4.9 mph E7.9 kmh E 7.0 mph11.3 kmh 30.09 in1019.0 mb 0.00 in0.0 mm 0.00 in/hr0.0 mm/hr 0.00 in0.0 mm
12:30 PM 37.4°F3.0°C 33.3°F0.7°C 85% 5.3 mph E8.5 kmh E 7.0 mph11.3 kmh 30.09 in1019.0 mb 0.00 in0.0 mm 0.00 in/hr0.0 mm/hr 0.00 in0.0 mm
12:40 PM 37.4°F3.0°C 33.0°F0.6°C 84% 6.0 mph E9.7 kmh E 8.0 mph12.9 kmh 30.08 in1018.6 mb 0.00 in0.0 mm 0.00 in/hr0.0 mm/hr 0.00 in0.0 mm
12:50 PM 37.4°F3.0°C 33.4°F0.8°C 85% 3.3 mph ENE5.3 kmh ENE 5.0 mph8.0 kmh 30.08 in1018.6 mb 0.00 in0.0 mm 0.00 in/hr0.0 mm/hr 0.00 in0.0 mm
01:00 PM 37.5°F3.1°C 33.1°F0.6°C 84% 6.1 mph E9.8 kmh E 9.0 mph14.5 kmh 30.08 in1018.6 mb 0.00 in0.0 mm 0.00 in/hr0.0 mm/hr 0.00 in0.0 mm
01:10 PM 37.4°F3.0°C 33.0°F0.6°C 84% 4.6 mph ESE7.4 kmh ESE 8.0 mph12.9 kmh 30.07 in1018.3 mb 0.00 in0.0 mm 0.00 in/hr0.0 mm/hr 0.00 in0.0 mm
01:20 PM 37.3°F2.9°C 32.9°F0.5°C 84% 6.6 mph ENE10.6 kmh ENE 11.0 mph17.7 kmh 30.07 in1018.3 mb 0.00 in0.0 mm 0.00 in/hr0.0 mm/hr 0.00 in0.0 mm
01:30 PM 37.2°F2.9°C 33.1°F0.6°C 85% 5.5 mph E8.9 kmh E 7.0 mph11.3 kmh 30.07 in1018.3 mb 0.00 in0.0 mm 0.00 in/hr0.0 mm/hr 0.00 in0.0 mm
01:40 PM 37.1°F2.8°C 33.0°F0.6°C 85% 4.8 mph E7.7 kmh E 7.0 mph11.3 kmh 30.07 in1018.3 mb 0.00 in0.0 mm 0.00 in/hr0.0 mm/hr 0.00 in0.0 mm
01:50 PM 37.3°F2.9°C 33.2°F0.7°C 85% 3.6 mph E5.8 kmh E 7.0 mph11.3 kmh 30.07 in1018.3 mb 0.00 in0.0 mm 0.00 in/hr0.0 mm/hr 0.00 in0.0 mm
02:00 PM 37.4°F3.0°C 33.0°F0.6°C 84% 5.9 mph E9.5 kmh E 9.0 mph14.5 kmh 30.06 in1017.9 mb 0.00 in0.0 mm 0.00 in/hr0.0 mm/hr 0.00 in0.0 mm
02:10 PM 37.4°F3.0°C 33.3°F0.7°C 85% 5.0 mph E8.0 kmh E 7.0 mph11.3 kmh 30.06 in1017.9 mb 0.00 in0.0 mm 0.00 in/hr0.0 mm/hr 0.00 in0.0 mm
02:20 PM 37.1°F2.8°C 33.0°F0.6°C 85% 5.7 mph E9.2 kmh E 9.0 mph14.5 kmh 30.06 in1017.9 mb 0.00 in0.0 mm 0.00 in/hr0.0 mm/hr 0.00 in0.0 mm
02:30 PM 37.1°F2.8°C 33.0°F0.6°C 85% 3.6 mph E5.8 kmh E 4.0 mph6.4 kmh 30.06 in1017.9 mb 0.00 in0.0 mm 0.00 in/hr0.0 mm/hr 0.00 in0.0 mm
02:40 PM 37.1°F2.8°C 32.7°F0.4°C 84% 6.3 mph E10.1 kmh E 9.0 mph14.5 kmh 30.06 in1017.9 mb 0.00 in0.0 mm 0.00 in/hr0.0 mm/hr 0.00 in0.0 mm
02:50 PM 37.0°F2.8°C 32.6°F0.3°C 84% 4.7 mph E7.6 kmh E 7.0 mph11.3 kmh 30.05 in1017.6 mb 0.00 in0.0 mm 0.00 in/hr0.0 mm/hr 0.00 in0.0 mm
03:00 PM 36.9°F2.7°C 32.8°F0.4°C 85% 3.6 mph ESE5.8 kmh ESE 6.0 mph9.7 kmh 30.05 in1017.6 mb 0.00 in0.0 mm 0.00 in/hr0.0 mm/hr 0.00 in0.0 mm
03:10 PM 36.9°F2.7°C 32.8°F0.4°C 85% 4.9 mph ESE7.9 kmh ESE 8.0 mph12.9 kmh 30.05 in1017.6 mb 0.00 in0.0 mm 0.00 in/hr0.0 mm/hr 0.00 in0.0 mm
03:20 PM 36.8°F2.7°C 32.7°F0.4°C 85% 5.1 mph E8.2 kmh E 6.0 mph9.7 kmh 30.06 in1017.9 mb 0.00 in0.0 mm 0.00 in/hr0.0 mm/hr 0.00 in0.0 mm
03:30 PM 36.7°F2.6°C 32.6°F0.3°C 85% 2.6 mph E4.2 kmh E 3.0 mph4.8 kmh 30.05 in1017.6 mb 0.00 in0.0 mm 0.00 in/hr0.0 mm/hr 0.00 in0.0 mm
03:40 PM 36.7°F2.6°C 32.6°F0.3°C 85% 4.0 mph E6.4 kmh E 7.0 mph11.3 kmh 30.05 in1017.6 mb 0.00 in0.0 mm 0.00 in/hr0.0 mm/hr 0.00 in0.0 mm
03:50 PM 36.6°F2.6°C 32.5°F0.3°C 85% 2.4 mph ESE3.9 kmh ESE 7.0 mph11.3 kmh 30.05 in1017.6 mb 0.00 in0.0 mm 0.00 in/hr0.0 mm/hr 0.00 in0.0 mm
04:00 PM 36.5°F2.5°C 32.7°F0.4°C 86% 3.0 mph E4.8 kmh E 3.0 mph4.8 kmh 30.06 in1017.9 mb 0.00 in0.0 mm 0.00 in/hr0.0 mm/hr 0.00 in0.0 mm
04:10 PM 36.5°F2.5°C 32.7°F0.4°C 86% 2.3 mph E3.7 kmh E 3.0 mph4.8 kmh 30.06 in1017.9 mb 0.00 in0.0 mm 0.00 in/hr0.0 mm/hr 0.00 in0.0 mm
04:20 PM 36.4°F2.4°C 32.6°F0.3°C 86% 4.5 mph E7.2 kmh E 6.0 mph9.7 kmh 30.05 in1017.6 mb 0.00 in0.0 mm 0.00 in/hr0.0 mm/hr 0.00 in0.0 mm
04:30 PM 36.3°F2.4°C 32.5°F0.3°C 86% 3.9 mph E6.3 kmh E 7.0 mph11.3 kmh 30.05 in1017.6 mb 0.00 in0.0 mm 0.00 in/hr0.0 mm/hr 0.00 in0.0 mm
04:40 PM 36.2°F2.3°C 32.7°F0.4°C 87% 3.9 mph E6.3 kmh E 8.0 mph12.9 kmh 30.05 in1017.6 mb 0.00 in0.0 mm 0.00 in/hr0.0 mm/hr 0.00 in0.0 mm
04:50 PM 36.1°F2.3°C 32.6°F0.3°C 87% 4.4 mph E7.1 kmh E 6.0 mph9.7 kmh 30.05 in1017.6 mb 0.00 in0.0 mm 0.00 in/hr0.0 mm/hr 0.00 in0.0 mm
05:00 PM 36.0°F2.2°C 32.5°F0.3°C 87% 4.0 mph E6.4 kmh E 7.0 mph11.3 kmh 30.06 in1017.9 mb 0.00 in0.0 mm 0.00 in/hr0.0 mm/hr 0.00 in0.0 mm
05:10 PM 35.9°F2.2°C 32.5°F0.3°C 87% 3.7 mph E6.0 kmh E 4.0 mph6.4 kmh 30.06 in1017.9 mb 0.00 in0.0 mm 0.00 in/hr0.0 mm/hr 0.00 in0.0 mm
05:20 PM 35.9°F2.2°C 32.7°F0.4°C 88% 2.3 mph E3.7 kmh E 6.0 mph9.7 kmh 30.06 in1017.9 mb 0.00 in0.0 mm 0.00 in/hr0.0 mm/hr 0.00 in0.0 mm
05:30 PM 35.9°F2.2°C 32.6°F0.3°C 88% 2.7 mph E4.3 kmh E 4.0 mph6.4 kmh 30.06 in1017.9 mb 0.00 in0.0 mm 0.00 in/hr0.0 mm/hr 0.00 in0.0 mm
05:40 PM 35.8°F2.1°C 32.6°F0.3°C 88% 2.7 mph E4.3 kmh E 4.0 mph6.4 kmh 30.05 in1017.6 mb 0.00 in0.0 mm 0.00 in/hr0.0 mm/hr 0.00 in0.0 mm
05:50 PM 35.8°F2.1°C 32.6°F0.3°C 88% 3.8 mph E6.1 kmh E 6.0 mph9.7 kmh 30.06 in1017.9 mb 0.00 in0.0 mm 0.00 in/hr0.0 mm/hr 0.00 in0.0 mm
06:00 PM 35.6°F2.0°C 32.4°F0.2°C 88% 3.4 mph E5.5 kmh E 6.0 mph9.7 kmh 30.06 in1017.9 mb 0.00 in0.0 mm 0.00 in/hr0.0 mm/hr 0.00 in0.0 mm
06:10 PM 35.5°F1.9°C 32.3°F0.2°C 88% 2.5 mph E4.0 kmh E 7.0 mph11.3 kmh 30.06 in1017.9 mb 0.00 in0.0 mm 0.00 in/hr0.0 mm/hr 0.00 in0.0 mm
06:20 PM 35.4°F1.9°C 32.2°F0.1°C 88% 3.4 mph E5.5 kmh E 7.0 mph11.3 kmh 30.06 in1017.9 mb 0.00 in0.0 mm 0.00 in/hr0.0 mm/hr 0.00 in0.0 mm
06:30 PM 35.4°F1.9°C 32.2°F0.1°C 88% 3.3 mph ESE5.3 kmh ESE 6.0 mph9.7 kmh 30.06 in1017.9 mb 0.00 in0.0 mm 0.00 in/hr0.0 mm/hr 0.00 in0.0 mm
06:40 PM 35.4°F1.9°C 32.2°F0.1°C 88% 3.4 mph E5.5 kmh E 7.0 mph11.3 kmh 30.06 in1017.9 mb 0.00 in0.0 mm 0.00 in/hr0.0 mm/hr 0.00 in0.0 mm
06:50 PM 35.3°F1.8°C 32.1°F0.1°C 88% 4.1 mph E6.6 kmh E 7.0 mph11.3 kmh 30.06 in1017.9 mb 0.00 in0.0 mm 0.00 in/hr0.0 mm/hr 0.00 in0.0 mm
07:00 PM 35.2°F1.8°C 32.3°F0.2°C 89% 2.9 mph ESE4.7 kmh ESE 4.0 mph6.4 kmh 30.06 in1017.9 mb 0.00 in0.0 mm 0.00 in/hr0.0 mm/hr 0.00 in0.0 mm
07:10 PM 35.2°F1.8°C 32.3°F0.2°C 89% 3.5 mph E5.6 kmh E 7.0 mph11.3 kmh 30.06 in1017.9 mb 0.00 in0.0 mm 0.00 in/hr0.0 mm/hr 0.00 in0.0 mm
07:20 PM 35.2°F1.8°C 32.3°F0.2°C 89% 2.2 mph E3.5 kmh E 4.0 mph6.4 kmh 30.06 in1017.9 mb 0.00 in0.0 mm 0.00 in/hr0.0 mm/hr 0.00 in0.0 mm
07:30 PM 35.2°F1.8°C 32.3°F0.2°C 89% 4.2 mph ESE6.8 kmh ESE 8.0 mph12.9 kmh 30.06 in1017.9 mb 0.00 in0.0 mm 0.00 in/hr0.0 mm/hr 0.00 in0.0 mm
07:40 PM 35.1°F1.7°C 32.2°F0.1°C 89% 4.1 mph SE6.6 kmh SE 7.0 mph11.3 kmh 30.06 in1017.9 mb 0.00 in0.0 mm 0.00 in/hr0.0 mm/hr 0.00 in0.0 mm
07:50 PM 35.1°F1.7°C 32.2°F0.1°C 89% 3.2 mph ESE5.1 kmh ESE 4.0 mph6.4 kmh 30.06 in1017.9 mb 0.00 in0.0 mm 0.00 in/hr0.0 mm/hr 0.00 in0.0 mm
08:01 PM 35.1°F1.7°C 32.2°F0.1°C 89% 1.7 mph E2.7 kmh E 3.0 mph4.8 kmh 30.06 in1017.9 mb 0.00 in0.0 mm 0.00 in/hr0.0 mm/hr 0.00 in0.0 mm
08:10 PM 35.1°F1.7°C 32.1°F0.1°C 89% 1.8 mph ESE2.9 kmh ESE 4.0 mph6.4 kmh 30.07 in1018.3 mb 0.00 in0.0 mm 0.00 in/hr0.0 mm/hr 0.00 in0.0 mm
08:20 PM 35.1°F1.7°C 32.2°F0.1°C 89% 2.0 mph ESE3.2 kmh ESE 6.0 mph9.7 kmh 30.06 in1017.9 mb 0.00 in0.0 mm 0.00 in/hr0.0 mm/hr 0.00 in0.0 mm
08:30 PM 35.0°F1.7°C 32.1°F0.1°C 89% 3.5 mph ESE5.6 kmh ESE 6.0 mph9.7 kmh 30.06 in1017.9 mb 0.00 in0.0 mm 0.00 in/hr0.0 mm/hr 0.00 in0.0 mm
08:40 PM 35.0°F1.7°C 32.1°F0.1°C 89% 2.4 mph ESE3.9 kmh ESE 4.0 mph6.4 kmh 30.06 in1017.9 mb 0.00 in0.0 mm 0.00 in/hr0.0 mm/hr 0.00 in0.0 mm
08:50 PM 35.0°F1.7°C 32.1°F0.1°C 89% 0.4 mph ESE0.6 kmh ESE 1.0 mph1.6 kmh 30.06 in1017.9 mb 0.00 in0.0 mm 0.00 in/hr0.0 mm/hr 0.00 in0.0 mm
09:00 PM 35.0°F1.7°C 32.1°F0.1°C 89% 1.4 mph ESE2.3 kmh ESE 3.0 mph4.8 kmh 30.06 in1017.9 mb 0.00 in0.0 mm 0.00 in/hr0.0 mm/hr 0.00 in0.0 mm
09:10 PM 35.0°F1.7°C 32.1°F0.1°C 89% 2.1 mph ESE3.4 kmh ESE 6.0 mph9.7 kmh 30.06 in1017.9 mb 0.00 in0.0 mm 0.00 in/hr0.0 mm/hr 0.00 in0.0 mm
09:20 PM 35.0°F1.7°C 32.1°F0.1°C 89% 2.4 mph ESE3.9 kmh ESE 3.0 mph4.8 kmh 30.06 in1017.9 mb 0.00 in0.0 mm 0.00 in/hr0.0 mm/hr 0.00 in0.0 mm
09:30 PM 35.1°F1.7°C 32.2°F0.1°C 89% 3.1 mph ESE5.0 kmh ESE 4.0 mph6.4 kmh 30.06 in1017.9 mb 0.00 in0.0 mm 0.00 in/hr0.0 mm/hr 0.00 in0.0 mm
09:40 PM 35.1°F1.7°C 32.2°F0.1°C 89% 1.4 mph ESE2.3 kmh ESE 2.0 mph3.2 kmh 30.06 in1017.9 mb 0.00 in0.0 mm 0.00 in/hr0.0 mm/hr 0.00 in0.0 mm
09:50 PM 35.1°F1.7°C 32.5°F0.3°C 90% 2.4 mph ESE3.9 kmh ESE 4.0 mph6.4 kmh 30.06 in1017.9 mb 0.00 in0.0 mm 0.00 in/hr0.0 mm/hr 0.00 in0.0 mm
10:00 PM 35.2°F1.8°C 32.6°F0.3°C 90% 1.2 mph ESE1.9 kmh ESE 4.0 mph6.4 kmh 30.06 in1017.9 mb 0.00 in0.0 mm 0.00 in/hr0.0 mm/hr 0.00 in0.0 mm
10:10 PM 35.2°F1.8°C 32.3°F0.2°C 89% 0.4 mph ESE0.6 kmh ESE 1.0 mph1.6 kmh 30.06 in1017.9 mb 0.00 in0.0 mm 0.00 in/hr0.0 mm/hr 0.00 in0.0 mm
10:20 PM 35.3°F1.8°C 32.4°F0.2°C 89% 1.0 mph ESE1.6 kmh ESE 2.0 mph3.2 kmh 30.06 in1017.9 mb 0.00 in0.0 mm 0.00 in/hr0.0 mm/hr 0.00 in0.0 mm
10:30 PM 35.4°F1.9°C 32.4°F0.2°C 89% 1.0 mph ESE1.6 kmh ESE 2.0 mph3.2 kmh 30.07 in1018.3 mb 0.00 in0.0 mm 0.00 in/hr0.0 mm/hr 0.00 in0.0 mm
10:40 PM 35.4°F1.9°C 32.5°F0.3°C 89% 1.7 mph ESE2.7 kmh ESE 3.0 mph4.8 kmh 30.06 in1017.9 mb 0.00 in0.0 mm 0.00 in/hr0.0 mm/hr 0.00 in0.0 mm
10:50 PM 35.4°F1.9°C 32.5°F0.3°C 89% 1.2 mph ESE1.9 kmh ESE 2.0 mph3.2 kmh 30.07 in1018.3 mb 0.00 in0.0 mm 0.00 in/hr0.0 mm/hr 0.00 in0.0 mm
11:00 PM 35.4°F1.9°C 32.5°F0.3°C 89% 0.9 mph ESE1.4 kmh ESE 3.0 mph4.8 kmh 30.06 in1017.9 mb 0.00 in0.0 mm 0.00 in/hr0.0 mm/hr 0.00 in0.0 mm
11:10 PM 35.4°F1.9°C 32.5°F0.3°C 89% 2.6 mph ESE4.2 kmh ESE 3.0 mph4.8 kmh 30.06 in1017.9 mb 0.00 in0.0 mm 0.00 in/hr0.0 mm/hr 0.00 in0.0 mm
11:20 PM 35.4°F1.9°C 32.5°F0.3°C 89% 0.5 mph ESE0.8 kmh ESE 3.0 mph4.8 kmh 30.06 in1017.9 mb 0.00 in0.0 mm 0.00 in/hr0.0 mm/hr 0.00 in0.0 mm
11:30 PM 35.4°F1.9°C 32.5°F0.3°C 89% 0.7 mph ESE1.1 kmh ESE 1.0 mph1.6 kmh 30.06 in1017.9 mb 0.00 in0.0 mm 0.00 in/hr0.0 mm/hr 0.00 in0.0 mm
11:40 PM 35.4°F1.9°C 32.5°F0.3°C 89% 0.5 mph ESE0.8 kmh ESE -- 30.06 in1017.9 mb 0.00 in0.0 mm 0.00 in/hr0.0 mm/hr 0.00 in0.0 mm
11:50 PM 35.4°F1.9°C 32.5°F0.3°C 89% 0.4 mph ESE0.6 kmh ESE 3.0 mph4.8 kmh 30.05 in1017.6 mb 0.00 in0.0 mm 0.00 in/hr0.0 mm/hr 0.00 in0.0 mm